Terminal Aerodrome Forecast
Issued by NWS

Home | Current Version | Previous Version | Text Only | Print | Product List | Glossary On
Versions: 1 2 3 4 5 6 7 8 9 10 11 12 13 14 15 16
000
FTAK31 PAJN 272335
TAFAKT
TAF
PAKT 272335Z 2800/2824 30005KT P6SM SKC
     FM280500 14005KT P6SM SCT060 BKN100
     FM281000 14008KT P6SM VCSH SCT030 OVC060
     FM281200 14015KT 2SM -SN BR SCT012 OVC025
     FM281400 14015KT 1/2SM SN OVC015
      AMD LTD TO CLD VIS AND WIND 2806/2815=

USA.gov is the U.S. government's official web portal to all federal, state and local government web resources and services.